sensor_id;sensor_type;location;lat;lon;timestamp;P1;durP1;ratioP1;P2;durP2;ratioP2
19535;SDS011;9913;51.168;4.124;2023-03-24T00:02:02;2.90;;;1.97;;
19535;SDS011;9913;51.168;4.124;2023-03-24T00:04:33;4.73;;;2.17;;
19535;SDS011;9913;51.168;4.124;2023-03-24T00:07:02;5.03;;;2.67;;
19535;SDS011;9913;51.168;4.124;2023-03-24T00:09:30;4.60;;;2.10;;
19535;SDS011;9913;51.168;4.124;2023-03-24T00:11:59;4.33;;;2.13;;
19535;SDS011;9913;51.168;4.124;2023-03-24T00:14:27;4.43;;;2.37;;
19535;SDS011;9913;51.168;4.124;2023-03-24T00:16:58;4.37;;;2.50;;
19535;SDS011;9913;51.168;4.124;2023-03-24T00:19:27;5.17;;;2.47;;
19535;SDS011;9913;51.168;4.124;2023-03-24T00:21:55;5.03;;;2.40;;
19535;SDS011;9913;51.168;4.124;2023-03-24T00:24:26;4.03;;;2.70;;
19535;SDS011;9913;51.168;4.124;2023-03-24T00:26:54;4.17;;;2.50;;
19535;SDS011;9913;51.168;4.124;2023-03-24T00:29:24;3.30;;;2.27;;
19535;SDS011;9913;51.168;4.124;2023-03-24T00:31:52;5.03;;;2.77;;
19535;SDS011;9913;51.168;4.124;2023-03-24T00:34:22;2.97;;;2.57;;
19535;SDS011;9913;51.168;4.124;2023-03-24T00:36:51;4.87;;;2.77;;
19535;SDS011;9913;51.168;4.124;2023-03-24T00:39:19;8.07;;;3.07;;
19535;SDS011;9913;51.168;4.124;2023-03-24T00:41:48;4.13;;;2.53;;
19535;SDS011;9913;51.168;4.124;2023-03-24T00:44:16;2.77;;;2.23;;
19535;SDS011;9913;51.168;4.124;2023-03-24T00:46:45;7.07;;;2.80;;
19535;SDS011;9913;51.168;4.124;2023-03-24T00:49:24;4.33;;;2.57;;
19535;SDS011;9913;51.168;4.124;2023-03-24T00:52:08;4.50;;;2.50;;
19535;SDS011;9913;51.168;4.124;2023-03-24T00:54:37;6.40;;;2.50;;
19535;SDS011;9913;51.168;4.124;2023-03-24T00:57:07;5.67;;;2.60;;
19535;SDS011;9913;51.168;4.124;2023-03-24T00:59:39;3.80;;;2.63;;
19535;SDS011;9913;51.168;4.124;2023-03-24T01:02:14;5.73;;;2.67;;
19535;SDS011;9913;51.168;4.124;2023-03-24T01:04:46;5.03;;;2.90;;
19535;SDS011;9913;51.168;4.124;2023-03-24T01:07:15;3.97;;;2.70;;
19535;SDS011;9913;51.168;4.124;2023-03-24T01:09:44;4.10;;;2.60;;
19535;SDS011;9913;51.168;4.124;2023-03-24T01:12:17;4.90;;;2.73;;
19535;SDS011;9913;51.168;4.124;2023-03-24T01:14:47;4.30;;;2.60;;
19535;SDS011;9913;51.168;4.124;2023-03-24T01:17:16;4.80;;;2.90;;
19535;SDS011;9913;51.168;4.124;2023-03-24T01:19:46;8.83;;;3.53;;
19535;SDS011;9913;51.168;4.124;2023-03-24T01:22:15;4.93;;;3.10;;
19535;SDS011;9913;51.168;4.124;2023-03-24T01:24:43;4.47;;;2.93;;
19535;SDS011;9913;51.168;4.124;2023-03-24T01:27:12;4.63;;;2.90;;
19535;SDS011;9913;51.168;4.124;2023-03-24T01:29:41;4.80;;;3.03;;
19535;SDS011;9913;51.168;4.124;2023-03-24T01:32:10;4.37;;;2.90;;
19535;SDS011;9913;51.168;4.124;2023-03-24T01:34:39;8.00;;;3.27;;
19535;SDS011;9913;51.168;4.124;2023-03-24T01:37:09;5.13;;;3.50;;
19535;SDS011;9913;51.168;4.124;2023-03-24T01:39:37;4.30;;;3.10;;
19535;SDS011;9913;51.168;4.124;2023-03-24T01:42:07;4.53;;;3.03;;
19535;SDS011;9913;51.168;4.124;2023-03-24T01:44:44;4.80;;;2.83;;
19535;SDS011;9913;51.168;4.124;2023-03-24T01:47:14;5.87;;;2.93;;
19535;SDS011;9913;51.168;4.124;2023-03-24T01:49:44;4.97;;;2.73;;
19535;SDS011;9913;51.168;4.124;2023-03-24T01:52:20;3.63;;;2.00;;
19535;SDS011;9913;51.168;4.124;2023-03-24T01:54:52;3.30;;;1.37;;
19535;SDS011;9913;51.168;4.124;2023-03-24T01:57:25;2.60;;;1.10;;
19535;SDS011;9913;51.168;4.124;2023-03-24T01:59:58;2.67;;;1.37;;
19535;SDS011;9913;51.168;4.124;2023-03-24T02:03:07;3.80;;;1.10;;
19535;SDS011;9913;51.168;4.124;2023-03-24T02:05:49;2.90;;;1.10;;
19535;SDS011;9913;51.168;4.124;2023-03-24T02:08:21;2.97;;;1.20;;
19535;SDS011;9913;51.168;4.124;2023-03-24T02:10:55;2.40;;;1.30;;
19535;SDS011;9913;51.168;4.124;2023-03-24T02:13:32;1.73;;;0.73;;
19535;SDS011;9913;51.168;4.124;2023-03-24T02:16:04;1.27;;;0.77;;
19535;SDS011;9913;51.168;4.124;2023-03-24T02:18:41;0.93;;;0.73;;
19535;SDS011;9913;51.168;4.124;2023-03-24T02:27:39;2.30;;;0.83;;
19535;SDS011;9913;51.168;4.124;2023-03-24T02:30:37;3.17;;;1.17;;
19535;SDS011;9913;51.168;4.124;2023-03-24T02:33:50;3.17;;;1.30;;
19535;SDS011;9913;51.168;4.124;2023-03-24T02:36:48;5.37;;;1.30;;
19535;SDS011;9913;51.168;4.124;2023-03-24T02:39:43;4.23;;;1.60;;
19535;SDS011;9913;51.168;4.124;2023-03-24T02:42:36;5.43;;;1.53;;
19535;SDS011;9913;51.168;4.124;2023-03-24T02:45:16;6.73;;;1.67;;
19535;SDS011;9913;51.168;4.124;2023-03-24T02:47:53;9.80;;;1.70;;
19535;SDS011;9913;51.168;4.124;2023-03-24T02:50:38;6.20;;;1.30;;
19535;SDS011;9913;51.168;4.124;2023-03-24T02:53:13;4.27;;;1.53;;
19535;SDS011;9913;51.168;4.124;2023-03-24T02:56:07;4.10;;;1.37;;
19535;SDS011;9913;51.168;4.124;2023-03-24T02:58:40;6.97;;;1.50;;
19535;SDS011;9913;51.168;4.124;2023-03-24T03:01:16;9.47;;;1.70;;
19535;SDS011;9913;51.168;4.124;2023-03-24T03:04:07;4.57;;;1.57;;
19535;SDS011;9913;51.168;4.124;2023-03-24T03:06:38;4.37;;;1.30;;
19535;SDS011;9913;51.168;4.124;2023-03-24T03:09:10;8.57;;;1.73;;
19535;SDS011;9913;51.168;4.124;2023-03-24T03:11:44;4.67;;;1.43;;
19535;SDS011;9913;51.168;4.124;2023-03-24T03:14:17;6.70;;;1.53;;
19535;SDS011;9913;51.168;4.124;2023-03-24T03:16:49;6.07;;;1.80;;
19535;SDS011;9913;51.168;4.124;2023-03-24T03:19:27;7.13;;;2.10;;
19535;SDS011;9913;51.168;4.124;2023-03-24T03:21:59;10.70;;;2.30;;
19535;SDS011;9913;51.168;4.124;2023-03-24T03:24:34;7.60;;;1.83;;
19535;SDS011;9913;51.168;4.124;2023-03-24T03:27:08;8.80;;;1.63;;
19535;SDS011;9913;51.168;4.124;2023-03-24T03:29:42;5.37;;;1.50;;
19535;SDS011;9913;51.168;4.124;2023-03-24T03:32:16;5.27;;;1.53;;
19535;SDS011;9913;51.168;4.124;2023-03-24T03:34:51;8.23;;;2.77;;
19535;SDS011;9913;51.168;4.124;2023-03-24T03:37:25;6.33;;;1.67;;
19535;SDS011;9913;51.168;4.124;2023-03-24T03:40:00;7.13;;;2.10;;
19535;SDS011;9913;51.168;4.124;2023-03-24T03:42:35;5.87;;;1.50;;
19535;SDS011;9913;51.168;4.124;2023-03-24T03:45:04;3.97;;;1.60;;
19535;SDS011;9913;51.168;4.124;2023-03-24T03:47:36;6.30;;;1.90;;
19535;SDS011;9913;51.168;4.124;2023-03-24T03:50:06;6.07;;;1.93;;
19535;SDS011;9913;51.168;4.124;2023-03-24T03:52:36;6.80;;;1.80;;
19535;SDS011;9913;51.168;4.124;2023-03-24T03:55:07;4.97;;;2.30;;
19535;SDS011;9913;51.168;4.124;2023-03-24T03:57:38;7.17;;;2.00;;
19535;SDS011;9913;51.168;4.124;2023-03-24T04:00:19;8.70;;;2.00;;
19535;SDS011;9913;51.168;4.124;2023-03-24T04:03:22;4.53;;;1.57;;
19535;SDS011;9913;51.168;4.124;2023-03-24T04:06:05;8.30;;;1.77;;
19535;SDS011;9913;51.168;4.124;2023-03-24T04:08:44;7.83;;;1.80;;
19535;SDS011;9913;51.168;4.124;2023-03-24T04:14:42;6.57;;;2.23;;
19535;SDS011;9913;51.168;4.124;2023-03-24T04:21:09;7.97;;;2.37;;
19535;SDS011;9913;51.168;4.124;2023-03-24T04:24:04;5.87;;;1.83;;
19535;SDS011;9913;51.168;4.124;2023-03-24T04:26:47;10.37;;;1.93;;
19535;SDS011;9913;51.168;4.124;2023-03-24T04:29:23;9.57;;;2.37;;
19535;SDS011;9913;51.168;4.124;2023-03-24T04:32:02;8.97;;;2.23;;
19535;SDS011;9913;51.168;4.124;2023-03-24T04:34:37;10.23;;;2.20;;
19535;SDS011;9913;51.168;4.124;2023-03-24T04:37:28;11.60;;;2.30;;
19535;SDS011;9913;51.168;4.124;2023-03-24T04:40:11;10.17;;;2.10;;
19535;SDS011;9913;51.168;4.124;2023-03-24T04:42:41;7.87;;;1.97;;
19535;SDS011;9913;51.168;4.124;2023-03-24T04:45:12;6.87;;;1.60;;
19535;SDS011;9913;51.168;4.124;2023-03-24T04:48:04;8.83;;;2.00;;
19535;SDS011;9913;51.168;4.124;2023-03-24T04:50:47;10.77;;;2.50;;
19535;SDS011;9913;51.168;4.124;2023-03-24T04:53:21;13.03;;;1.97;;
19535;SDS011;9913;51.168;4.124;2023-03-24T04:56:01;8.50;;;2.17;;
19535;SDS011;9913;51.168;4.124;2023-03-24T04:59:00;8.40;;;2.17;;
19535;SDS011;9913;51.168;4.124;2023-03-24T05:01:29;9.40;;;2.20;;
19535;SDS011;9913;51.168;4.124;2023-03-24T05:04:20;8.87;;;2.53;;
19535;SDS011;9913;51.168;4.124;2023-03-24T05:06:50;14.67;;;2.20;;
19535;SDS011;9913;51.168;4.124;2023-03-24T05:09:22;8.00;;;2.13;;
19535;SDS011;9913;51.168;4.124;2023-03-24T05:11:51;8.63;;;2.40;;
19535;SDS011;9913;51.168;4.124;2023-03-24T05:14:22;10.97;;;2.90;;
19535;SDS011;9913;51.168;4.124;2023-03-24T05:16:51;10.73;;;3.43;;
19535;SDS011;9913;51.168;4.124;2023-03-24T05:19:22;8.93;;;2.33;;
19535;SDS011;9913;51.168;4.124;2023-03-24T05:21:51;7.37;;;2.87;;
19535;SDS011;9913;51.168;4.124;2023-03-24T05:24:21;9.27;;;2.43;;
19535;SDS011;9913;51.168;4.124;2023-03-24T05:26:50;8.60;;;2.33;;
19535;SDS011;9913;51.168;4.124;2023-03-24T05:29:19;11.63;;;2.50;;
19535;SDS011;9913;51.168;4.124;2023-03-24T05:31:47;7.17;;;2.23;;
19535;SDS011;9913;51.168;4.124;2023-03-24T05:34:19;11.83;;;2.43;;
19535;SDS011;9913;51.168;4.124;2023-03-24T05:37:11;10.70;;;2.57;;
19535;SDS011;9913;51.168;4.124;2023-03-24T05:39:46;11.73;;;2.33;;
19535;SDS011;9913;51.168;4.124;2023-03-24T05:42:44;11.07;;;2.73;;
19535;SDS011;9913;51.168;4.124;2023-03-24T05:45:15;9.20;;;2.10;;
19535;SDS011;9913;51.168;4.124;2023-03-24T05:47:44;9.40;;;2.57;;
19535;SDS011;9913;51.168;4.124;2023-03-24T05:50:16;14.10;;;2.50;;
19535;SDS011;9913;51.168;4.124;2023-03-24T05:52:46;7.53;;;2.20;;
19535;SDS011;9913;51.168;4.124;2023-03-24T05:55:43;14.87;;;2.57;;
19535;SDS011;9913;51.168;4.124;2023-03-24T05:58:32;11.53;;;2.33;;
19535;SDS011;9913;51.168;4.124;2023-03-24T06:01:04;12.03;;;2.37;;
19535;SDS011;9913;51.168;4.124;2023-03-24T06:03:35;6.20;;;2.00;;
19535;SDS011;9913;51.168;4.124;2023-03-24T06:06:10;10.23;;;2.40;;
19535;SDS011;9913;51.168;4.124;2023-03-24T06:08:44;7.43;;;2.03;;
19535;SDS011;9913;51.168;4.124;2023-03-24T06:11:13;13.23;;;2.70;;
19535;SDS011;9913;51.168;4.124;2023-03-24T06:14:00;8.93;;;2.23;;
19535;SDS011;9913;51.168;4.124;2023-03-24T06:16:35;14.40;;;2.37;;
19535;SDS011;9913;51.168;4.124;2023-03-24T06:19:06;9.73;;;2.27;;
19535;SDS011;9913;51.168;4.124;2023-03-24T06:22:00;9.00;;;2.27;;
19535;SDS011;9913;51.168;4.124;2023-03-24T06:24:42;8.60;;;2.37;;
19535;SDS011;9913;51.168;4.124;2023-03-24T06:27:13;12.47;;;2.87;;
19535;SDS011;9913;51.168;4.124;2023-03-24T06:29:41;6.40;;;2.00;;
19535;SDS011;9913;51.168;4.124;2023-03-24T06:32:11;11.23;;;2.47;;
19535;SDS011;9913;51.168;4.124;2023-03-24T06:34:41;10.63;;;2.03;;
19535;SDS011;9913;51.168;4.124;2023-03-24T06:37:30;4.83;;;1.87;;
19535;SDS011;9913;51.168;4.124;2023-03-24T06:40:02;10.67;;;2.70;;
19535;SDS011;9913;51.168;4.124;2023-03-24T06:42:36;12.50;;;2.50;;
19535;SDS011;9913;51.168;4.124;2023-03-24T06:45:05;9.43;;;2.43;;
19535;SDS011;9913;51.168;4.124;2023-03-24T06:47:35;8.67;;;2.27;;
19535;SDS011;9913;51.168;4.124;2023-03-24T06:50:05;7.27;;;2.43;;
19535;SDS011;9913;51.168;4.124;2023-03-24T06:52:34;9.30;;;2.33;;
19535;SDS011;9913;51.168;4.124;2023-03-24T06:55:04;9.70;;;2.43;;
19535;SDS011;9913;51.168;4.124;2023-03-24T06:57:34;7.97;;;2.23;;
19535;SDS011;9913;51.168;4.124;2023-03-24T07:00:20;9.43;;;2.10;;
19535;SDS011;9913;51.168;4.124;2023-03-24T07:02:59;11.53;;;2.23;;
19535;SDS011;9913;51.168;4.124;2023-03-24T07:05:28;9.57;;;2.23;;
19535;SDS011;9913;51.168;4.124;2023-03-24T07:07:57;11.00;;;2.13;;
19535;SDS011;9913;51.168;4.124;2023-03-24T07:10:35;5.63;;;2.00;;
19535;SDS011;9913;51.168;4.124;2023-03-24T07:13:05;8.13;;;2.50;;
19535;SDS011;9913;51.168;4.124;2023-03-24T07:15:36;6.83;;;2.00;;
19535;SDS011;9913;51.168;4.124;2023-03-24T07:18:05;8.40;;;1.67;;
19535;SDS011;9913;51.168;4.124;2023-03-24T07:20:40;7.87;;;2.00;;
19535;SDS011;9913;51.168;4.124;2023-03-24T07:23:12;6.17;;;1.73;;
19535;SDS011;9913;51.168;4.124;2023-03-24T07:25:44;8.47;;;2.43;;
19535;SDS011;9913;51.168;4.124;2023-03-24T07:28:22;6.97;;;2.00;;
19535;SDS011;9913;51.168;4.124;2023-03-24T07:30:52;7.93;;;2.30;;
19535;SDS011;9913;51.168;4.124;2023-03-24T07:33:22;9.20;;;2.53;;
19535;SDS011;9913;51.168;4.124;2023-03-24T07:35:52;9.20;;;2.47;;
19535;SDS011;9913;51.168;4.124;2023-03-24T07:38:24;8.27;;;1.83;;
19535;SDS011;9913;51.168;4.124;2023-03-24T07:40:59;8.33;;;2.10;;
19535;SDS011;9913;51.168;4.124;2023-03-24T07:43:30;10.30;;;2.60;;
19535;SDS011;9913;51.168;4.124;2023-03-24T07:45:59;9.90;;;2.37;;
19535;SDS011;9913;51.168;4.124;2023-03-24T07:48:27;12.93;;;2.43;;
19535;SDS011;9913;51.168;4.124;2023-03-24T07:50:56;9.23;;;2.10;;
19535;SDS011;9913;51.168;4.124;2023-03-24T07:53:47;9.93;;;2.20;;
19535;SDS011;9913;51.168;4.124;2023-03-24T07:56:26;11.03;;;3.17;;
19535;SDS011;9913;51.168;4.124;2023-03-24T07:58:57;5.83;;;2.27;;
19535;SDS011;9913;51.168;4.124;2023-03-24T08:02:01;8.80;;;2.13;;
19535;SDS011;9913;51.168;4.124;2023-03-24T08:04:49;7.50;;;1.80;;
19535;SDS011;9913;51.168;4.124;2023-03-24T08:07:49;9.30;;;2.13;;
19535;SDS011;9913;51.168;4.124;2023-03-24T08:10:20;10.63;;;2.03;;
19535;SDS011;9913;51.168;4.124;2023-03-24T08:12:51;5.83;;;1.70;;
19535;SDS011;9913;51.168;4.124;2023-03-24T08:15:20;7.10;;;1.70;;
19535;SDS011;9913;51.168;4.124;2023-03-24T08:17:48;10.27;;;2.13;;
19535;SDS011;9913;51.168;4.124;2023-03-24T08:20:17;9.77;;;2.07;;
19535;SDS011;9913;51.168;4.124;2023-03-24T08:22:47;7.33;;;2.10;;
19535;SDS011;9913;51.168;4.124;2023-03-24T08:25:21;10.43;;;2.20;;
19535;SDS011;9913;51.168;4.124;2023-03-24T08:27:52;8.90;;;2.23;;
19535;SDS011;9913;51.168;4.124;2023-03-24T08:30:22;5.97;;;1.77;;
19535;SDS011;9913;51.168;4.124;2023-03-24T08:32:52;7.57;;;2.00;;
19535;SDS011;9913;51.168;4.124;2023-03-24T08:35:22;6.07;;;2.00;;
19535;SDS011;9913;51.168;4.124;2023-03-24T08:37:52;8.13;;;2.43;;
19535;SDS011;9913;51.168;4.124;2023-03-24T08:40:21;10.73;;;1.80;;
19535;SDS011;9913;51.168;4.124;2023-03-24T08:42:51;7.60;;;2.03;;
19535;SDS011;9913;51.168;4.124;2023-03-24T08:45:23;7.60;;;2.03;;
19535;SDS011;9913;51.168;4.124;2023-03-24T08:47:54;4.57;;;2.00;;
19535;SDS011;9913;51.168;4.124;2023-03-24T08:50:25;7.57;;;2.27;;
19535;SDS011;9913;51.168;4.124;2023-03-24T08:52:55;12.57;;;2.10;;
19535;SDS011;9913;51.168;4.124;2023-03-24T08:55:24;10.40;;;2.53;;
19535;SDS011;9913;51.168;4.124;2023-03-24T08:57:54;9.27;;;2.00;;
19535;SDS011;9913;51.168;4.124;2023-03-24T09:00:22;8.13;;;1.93;;
19535;SDS011;9913;51.168;4.124;2023-03-24T09:02:52;10.53;;;2.37;;
19535;SDS011;9913;51.168;4.124;2023-03-24T09:05:22;10.90;;;2.87;;
19535;SDS011;9913;51.168;4.124;2023-03-24T09:08:10;5.03;;;1.80;;
19535;SDS011;9913;51.168;4.124;2023-03-24T09:10:39;7.93;;;2.73;;
19535;SDS011;9913;51.168;4.124;2023-03-24T09:13:10;10.33;;;2.33;;
19535;SDS011;9913;51.168;4.124;2023-03-24T09:15:38;8.77;;;2.40;;
19535;SDS011;9913;51.168;4.124;2023-03-24T09:18:07;9.00;;;2.97;;
19535;SDS011;9913;51.168;4.124;2023-03-24T09:20:36;6.27;;;2.03;;
19535;SDS011;9913;51.168;4.124;2023-03-24T09:23:04;8.90;;;2.30;;
19535;SDS011;9913;51.168;4.124;2023-03-24T09:25:32;8.97;;;2.23;;
19535;SDS011;9913;51.168;4.124;2023-03-24T09:28:01;7.93;;;2.27;;
19535;SDS011;9913;51.168;4.124;2023-03-24T09:30:31;12.73;;;1.90;;
19535;SDS011;9913;51.168;4.124;2023-03-24T09:33:00;8.23;;;2.70;;
19535;SDS011;9913;51.168;4.124;2023-03-24T09:35:29;7.53;;;2.13;;
19535;SDS011;9913;51.168;4.124;2023-03-24T09:37:57;6.57;;;2.23;;
19535;SDS011;9913;51.168;4.124;2023-03-24T09:40:27;8.00;;;1.93;;
19535;SDS011;9913;51.168;4.124;2023-03-24T09:42:56;9.63;;;2.63;;
19535;SDS011;9913;51.168;4.124;2023-03-24T09:45:32;12.37;;;2.93;;
19535;SDS011;9913;51.168;4.124;2023-03-24T09:48:03;8.77;;;2.23;;
19535;SDS011;9913;51.168;4.124;2023-03-24T09:50:37;7.60;;;1.83;;
19535;SDS011;9913;51.168;4.124;2023-03-24T09:53:13;7.00;;;2.07;;
19535;SDS011;9913;51.168;4.124;2023-03-24T09:55:47;7.57;;;1.83;;
19535;SDS011;9913;51.168;4.124;2023-03-24T09:58:16;10.77;;;2.40;;
19535;SDS011;9913;51.168;4.124;2023-03-24T10:00:47;4.50;;;1.90;;
19535;SDS011;9913;51.168;4.124;2023-03-24T10:03:17;7.07;;;2.13;;
19535;SDS011;9913;51.168;4.124;2023-03-24T10:05:50;7.30;;;1.80;;
19535;SDS011;9913;51.168;4.124;2023-03-24T10:08:24;9.07;;;2.23;;
19535;SDS011;9913;51.168;4.124;2023-03-24T10:10:58;8.60;;;2.10;;
19535;SDS011;9913;51.168;4.124;2023-03-24T10:13:32;6.30;;;1.83;;
19535;SDS011;9913;51.168;4.124;2023-03-24T10:16:13;10.27;;;2.47;;
19535;SDS011;9913;51.168;4.124;2023-03-24T10:18:50;8.33;;;2.30;;
19535;SDS011;9913;51.168;4.124;2023-03-24T10:21:25;8.40;;;2.30;;
19535;SDS011;9913;51.168;4.124;2023-03-24T10:23:57;6.57;;;2.33;;
19535;SDS011;9913;51.168;4.124;2023-03-24T10:26:35;8.20;;;2.50;;
19535;SDS011;9913;51.168;4.124;2023-03-24T10:29:13;12.43;;;2.63;;
19535;SDS011;9913;51.168;4.124;2023-03-24T10:31:51;5.13;;;2.03;;
19535;SDS011;9913;51.168;4.124;2023-03-24T10:34:26;10.17;;;2.50;;
19535;SDS011;9913;51.168;4.124;2023-03-24T10:36:56;8.17;;;2.07;;
19535;SDS011;9913;51.168;4.124;2023-03-24T10:39:27;6.33;;;2.20;;
19535;SDS011;9913;51.168;4.124;2023-03-24T10:42:14;5.30;;;1.60;;
19535;SDS011;9913;51.168;4.124;2023-03-24T10:44:47;7.20;;;1.77;;
19535;SDS011;9913;51.168;4.124;2023-03-24T10:47:21;9.30;;;2.00;;
19535;SDS011;9913;51.168;4.124;2023-03-24T10:49:53;7.23;;;1.60;;
19535;SDS011;9913;51.168;4.124;2023-03-24T10:52:24;10.83;;;2.33;;
19535;SDS011;9913;51.168;4.124;2023-03-24T10:54:52;6.13;;;1.87;;
19535;SDS011;9913;51.168;4.124;2023-03-24T10:57:23;5.00;;;1.50;;
19535;SDS011;9913;51.168;4.124;2023-03-24T10:59:53;5.27;;;1.40;;
19535;SDS011;9913;51.168;4.124;2023-03-24T11:02:28;4.40;;;1.47;;
19535;SDS011;9913;51.168;4.124;2023-03-24T11:04:58;5.13;;;1.70;;
19535;SDS011;9913;51.168;4.124;2023-03-24T11:07:31;8.00;;;1.90;;
19535;SDS011;9913;51.168;4.124;2023-03-24T11:10:03;7.27;;;2.00;;
19535;SDS011;9913;51.168;4.124;2023-03-24T11:12:34;7.67;;;2.40;;
19535;SDS011;9913;51.168;4.124;2023-03-24T11:17:56;8.33;;;3.10;;
19535;SDS011;9913;51.168;4.124;2023-03-24T11:20:28;7.33;;;3.37;;
19535;SDS011;9913;51.168;4.124;2023-03-24T11:23:00;6.17;;;3.00;;
19535;SDS011;9913;51.168;4.124;2023-03-24T11:25:31;14.63;;;4.53;;
19535;SDS011;9913;51.168;4.124;2023-03-24T11:28:04;12.33;;;3.47;;
19535;SDS011;9913;51.168;4.124;2023-03-24T11:30:42;10.87;;;3.30;;
19535;SDS011;9913;51.168;4.124;2023-03-24T11:33:21;7.43;;;2.80;;
19535;SDS011;9913;51.168;4.124;2023-03-24T11:36:02;6.53;;;2.90;;
19535;SDS011;9913;51.168;4.124;2023-03-24T11:38:35;5.73;;;2.50;;
19535;SDS011;9913;51.168;4.124;2023-03-24T11:41:04;8.93;;;3.37;;
19535;SDS011;9913;51.168;4.124;2023-03-24T11:43:32;8.80;;;2.53;;
19535;SDS011;9913;51.168;4.124;2023-03-24T11:46:03;8.30;;;2.27;;
19535;SDS011;9913;51.168;4.124;2023-03-24T11:48:39;8.07;;;2.60;;
19535;SDS011;9913;51.168;4.124;2023-03-24T11:51:16;6.17;;;1.80;;
19535;SDS011;9913;51.168;4.124;2023-03-24T11:53:55;3.73;;;1.73;;
19535;SDS011;9913;51.168;4.124;2023-03-24T11:56:26;7.17;;;2.10;;
19535;SDS011;9913;51.168;4.124;2023-03-24T11:59:00;6.07;;;1.63;;
19535;SDS011;9913;51.168;4.124;2023-03-24T12:01:35;2.90;;;1.33;;
19535;SDS011;9913;51.168;4.124;2023-03-24T12:04:12;10.33;;;1.90;;
19535;SDS011;9913;51.168;4.124;2023-03-24T12:06:57;5.13;;;1.30;;
19535;SDS011;9913;51.168;4.124;2023-03-24T12:09:34;7.37;;;1.77;;
19535;SDS011;9913;51.168;4.124;2023-03-24T12:12:18;6.67;;;1.80;;
19535;SDS011;9913;51.168;4.124;2023-03-24T12:14:56;8.80;;;1.70;;
19535;SDS011;9913;51.168;4.124;2023-03-24T12:17:47;4.97;;;2.07;;
19535;SDS011;9913;51.168;4.124;2023-03-24T12:20:24;8.43;;;2.23;;
19535;SDS011;9913;51.168;4.124;2023-03-24T12:22:58;8.63;;;2.27;;
19535;SDS011;9913;51.168;4.124;2023-03-24T12:25:37;6.63;;;2.03;;
19535;SDS011;9913;51.168;4.124;2023-03-24T12:28:13;9.27;;;2.57;;
19535;SDS011;9913;51.168;4.124;2023-03-24T12:30:54;7.00;;;2.33;;
19535;SDS011;9913;51.168;4.124;2023-03-24T12:33:37;5.23;;;1.80;;
19535;SDS011;9913;51.168;4.124;2023-03-24T12:36:30;6.10;;;2.00;;
19535;SDS011;9913;51.168;4.124;2023-03-24T12:39:10;4.50;;;1.80;;
19535;SDS011;9913;51.168;4.124;2023-03-24T12:44:49;7.80;;;1.80;;
19535;SDS011;9913;51.168;4.124;2023-03-24T12:47:43;7.93;;;1.80;;
19535;SDS011;9913;51.168;4.124;2023-03-24T12:50:33;10.37;;;2.30;;
19535;SDS011;9913;51.168;4.124;2023-03-24T12:53:17;8.67;;;2.40;;
19535;SDS011;9913;51.168;4.124;2023-03-24T12:55:54;6.80;;;2.13;;
19535;SDS011;9913;51.168;4.124;2023-03-24T12:58:30;7.23;;;2.10;;
19535;SDS011;9913;51.168;4.124;2023-03-24T13:01:10;5.83;;;2.17;;
19535;SDS011;9913;51.168;4.124;2023-03-24T13:03:46;6.73;;;2.20;;
19535;SDS011;9913;51.168;4.124;2023-03-24T13:06:19;7.87;;;2.10;;
19535;SDS011;9913;51.168;4.124;2023-03-24T13:08:58;6.93;;;2.00;;
19535;SDS011;9913;51.168;4.124;2023-03-24T13:11:35;6.77;;;1.90;;
19535;SDS011;9913;51.168;4.124;2023-03-24T13:14:11;4.37;;;1.80;;
19535;SDS011;9913;51.168;4.124;2023-03-24T13:16:43;9.23;;;2.00;;
19535;SDS011;9913;51.168;4.124;2023-03-24T13:19:16;7.87;;;2.13;;
19535;SDS011;9913;51.168;4.124;2023-03-24T13:21:48;5.30;;;2.37;;
19535;SDS011;9913;51.168;4.124;2023-03-24T13:24:20;4.70;;;1.97;;
19535;SDS011;9913;51.168;4.124;2023-03-24T13:26:51;9.97;;;2.30;;
19535;SDS011;9913;51.168;4.124;2023-03-24T13:29:31;4.83;;;2.10;;
19535;SDS011;9913;51.168;4.124;2023-03-24T13:32:20;8.07;;;2.03;;
19535;SDS011;9913;51.168;4.124;2023-03-24T13:34:56;9.30;;;2.50;;
19535;SDS011;9913;51.168;4.124;2023-03-24T13:37:32;6.67;;;1.67;;
19535;SDS011;9913;51.168;4.124;2023-03-24T13:40:06;5.90;;;1.73;;
19535;SDS011;9913;51.168;4.124;2023-03-24T13:42:41;5.10;;;1.50;;
19535;SDS011;9913;51.168;4.124;2023-03-24T13:45:20;3.30;;;1.30;;
19535;SDS011;9913;51.168;4.124;2023-03-24T13:47:55;10.63;;;2.23;;
19535;SDS011;9913;51.168;4.124;2023-03-24T13:50:47;6.23;;;1.90;;
19535;SDS011;9913;51.168;4.124;2023-03-24T13:53:25;4.83;;;1.57;;
19535;SDS011;9913;51.168;4.124;2023-03-24T13:56:00;6.87;;;1.40;;
19535;SDS011;9913;51.168;4.124;2023-03-24T13:58:44;6.23;;;1.40;;
19535;SDS011;9913;51.168;4.124;2023-03-24T14:01:16;4.70;;;1.67;;
19535;SDS011;9913;51.168;4.124;2023-03-24T14:07:23;4.87;;;1.57;;
19535;SDS011;9913;51.168;4.124;2023-03-24T14:09:59;1.70;;;0.90;;
19535;SDS011;9913;51.168;4.124;2023-03-24T14:12:31;3.03;;;1.20;;
19535;SDS011;9913;51.168;4.124;2023-03-24T14:15:13;2.50;;;1.10;;
19535;SDS011;9913;51.168;4.124;2023-03-24T14:17:44;6.97;;;1.23;;
19535;SDS011;9913;51.168;4.124;2023-03-24T14:20:23;3.47;;;1.00;;
19535;SDS011;9913;51.168;4.124;2023-03-24T14:22:53;3.97;;;1.10;;
19535;SDS011;9913;51.168;4.124;2023-03-24T14:25:25;9.07;;;1.43;;
19535;SDS011;9913;51.168;4.124;2023-03-24T14:28:08;4.97;;;1.20;;
19535;SDS011;9913;51.168;4.124;2023-03-24T14:33:56;7.47;;;1.77;;
19535;SDS011;9913;51.168;4.124;2023-03-24T14:36:29;6.47;;;1.77;;
19535;SDS011;9913;51.168;4.124;2023-03-24T14:39:11;8.63;;;1.87;;
19535;SDS011;9913;51.168;4.124;2023-03-24T14:41:51;4.77;;;1.73;;
19535;SDS011;9913;51.168;4.124;2023-03-24T14:47:21;8.73;;;1.60;;
19535;SDS011;9913;51.168;4.124;2023-03-24T14:49:55;4.37;;;1.20;;
19535;SDS011;9913;51.168;4.124;2023-03-24T14:52:26;4.30;;;1.17;;
19535;SDS011;9913;51.168;4.124;2023-03-24T14:54:59;3.05;;;1.25;;
19535;SDS011;9913;51.168;4.124;2023-03-24T14:57:33;5.57;;;1.00;;
19535;SDS011;9913;51.168;4.124;2023-03-24T15:00:08;5.93;;;1.48;;
19535;SDS011;9913;51.168;4.124;2023-03-24T15:02:43;3.88;;;0.90;;
19535;SDS011;9913;51.168;4.124;2023-03-24T15:05:23;7.63;;;1.42;;
19535;SDS011;9913;51.168;4.124;2023-03-24T15:07:57;5.60;;;1.13;;
19535;SDS011;9913;51.168;4.124;2023-03-24T15:10:32;4.78;;;1.25;;
19535;SDS011;9913;51.168;4.124;2023-03-24T15:13:04;5.20;;;1.20;;
19535;SDS011;9913;51.168;4.124;2023-03-24T15:15:34;4.00;;;1.23;;
19535;SDS011;9913;51.168;4.124;2023-03-24T15:18:03;4.13;;;1.42;;
19535;SDS011;9913;51.168;4.124;2023-03-24T15:20:31;6.23;;;1.33;;
19535;SDS011;9913;51.168;4.124;2023-03-24T15:23:13;5.23;;;1.40;;
19535;SDS011;9913;51.168;4.124;2023-03-24T15:25:44;3.10;;;1.50;;
19535;SDS011;9913;51.168;4.124;2023-03-24T15:28:16;3.45;;;1.27;;
19535;SDS011;9913;51.168;4.124;2023-03-24T15:30:48;4.80;;;1.23;;
19535;SDS011;9913;51.168;4.124;2023-03-24T15:33:17;7.45;;;1.65;;
19535;SDS011;9913;51.168;4.124;2023-03-24T15:35:53;3.95;;;1.13;;
19535;SDS011;9913;51.168;4.124;2023-03-24T15:38:26;3.80;;;1.08;;
19535;SDS011;9913;51.168;4.124;2023-03-24T15:40:56;3.20;;;1.13;;
19535;SDS011;9913;51.168;4.124;2023-03-24T15:43:27;4.22;;;0.93;;
19535;SDS011;9913;51.168;4.124;2023-03-24T15:45:58;2.33;;;0.90;;
19535;SDS011;9913;51.168;4.124;2023-03-24T15:48:38;3.13;;;0.88;;
19535;SDS011;9913;51.168;4.124;2023-03-24T15:51:07;5.15;;;1.40;;
19535;SDS011;9913;51.168;4.124;2023-03-24T15:53:38;6.35;;;1.00;;
19535;SDS011;9913;51.168;4.124;2023-03-24T15:56:17;5.07;;;1.10;;
19535;SDS011;9913;51.168;4.124;2023-03-24T15:58:49;2.78;;;0.98;;
19535;SDS011;9913;51.168;4.124;2023-03-24T16:01:22;5.63;;;0.93;;
19535;SDS011;9913;51.168;4.124;2023-03-24T16:03:58;3.90;;;1.00;;
19535;SDS011;9913;51.168;4.124;2023-03-24T16:06:28;3.13;;;1.30;;
19535;SDS011;9913;51.168;4.124;2023-03-24T16:09:03;8.23;;;1.73;;
19535;SDS011;9913;51.168;4.124;2023-03-24T16:11:34;3.03;;;1.30;;
19535;SDS011;9913;51.168;4.124;2023-03-24T16:14:05;4.17;;;1.07;;
19535;SDS011;9913;51.168;4.124;2023-03-24T16:16:47;4.20;;;1.20;;